Aviation Digital Data Service (ADDS)

Output produced by TAFs form (1049 UTC 24 April 2018)
found at http://aviationweather.gov/adds/tafs/
 
METAR text: KMHR 240950Z 15004KT 10SM SKC 11/10 A2994
Conditions at: KMHR (MATHER FIELD , CA, US) observed 0950 UTC 24 April 2018
Temperature: 11.0°C (52°F)
Dewpoint: 10.0°C (50°F) [RH = 94%]
Pressure (altimeter): 29.94 inches Hg (1014.0 mb)
Winds: from the SSE (150 degrees) at 5 MPH (4 knots; 2.1 m/s)
Visibility: 10 or more miles (16+ km)
Ceiling: at least 12,000 feet AGL
Clouds: clear skies
Weather: no significant weather observed at this time

Forecast for: KMHR (MATHER FIELD , CA, US)
Text: KMHR 240520Z 2406/2506 VRB04KT P6SM FEW250
Forecast period: 0600 UTC 24 April 2018 to 0600 UTC 25 April 2018
Forecast type: FROM: standard forecast or significant change
Winds: variable direction winds at 5 MPH (4 knots; 2.1 m/s)
Visibility: 6 or more miles (10+ km)
Clouds: few clouds at 25000 feet AGL
Weather: no significant weather forecast for this period